Time;durP1;ratioP1;P1;durP2;ratioP2;P2;SDS_P1;SDS_P2;PMS_P1;PMS_P2;Temp;Humidity;BMP_temperature;BMP_pressure;BME280_temperature;BME280_humidity;BME280_pressure;Samples;Min_cycle;Max_cycle;Signal;HPM_P1;HPM_P2
2022/07/21 00:00:18;;;;;;;22.42;14.60;;;;;;;17.92;100.00;97671.09;4986020;28;20541;-64
2022/07/21 00:02:46;;;;;;;20.20;13.57;;;;;;;17.94;100.00;97668.88;4986485;28;20089;-63
2022/07/21 00:05:13;;;;;;;16.92;13.35;;;;;;;17.86;100.00;97666.78;4986126;28;20080;-64
2022/07/21 00:07:39;;;;;;;17.35;13.75;;;;;;;17.63;100.00;97666.50;4985699;28;20588;-64
2022/07/21 00:10:06;;;;;;;16.05;12.68;;;;;;;17.53;100.00;97667.41;4986781;28;20042;-64
2022/07/21 00:12:33;;;;;;;18.02;14.23;;;;;;;17.45;100.00;97655.19;4986309;28;20050;-64
2022/07/21 00:15:00;;;;;;;17.30;14.00;;;;;;;17.42;100.00;97655.75;4986332;28;20046;-64
2022/07/21 00:17:26;;;;;;;18.92;14.63;;;;;;;17.44;100.00;97655.47;4985439;28;20496;-64
2022/07/21 00:19:53;;;;;;;17.13;14.27;;;;;;;17.42;100.00;97651.13;4986135;28;20061;-64
2022/07/21 00:22:19;;;;;;;17.02;13.50;;;;;;;17.32;100.00;97643.00;4986265;28;20109;-64
2022/07/21 00:24:46;;;;;;;18.33;15.00;;;;;;;17.29;100.00;97638.91;4987164;28;20034;-63
2022/07/21 00:27:12;;;;;;;19.98;14.00;;;;;;;17.27;100.00;97651.25;4989357;28;20050;-64
2022/07/21 00:29:39;;;;;;;16.73;13.85;;;;;;;17.07;100.00;97652.28;4990328;28;20553;-64
2022/07/21 00:32:05;;;;;;;16.92;13.45;;;;;;;16.91;100.00;97660.59;4990133;28;20057;-63
2022/07/21 00:34:33;;;;;;;19.67;14.18;;;;;;;17.03;100.00;97679.38;4990019;28;20046;-64
2022/07/21 00:37:00;;;;;;;20.75;14.77;;;;;;;17.15;100.00;97679.03;4989481;28;20053;-64
2022/07/21 00:39:26;;;;;;;18.08;14.60;;;;;;;17.19;100.00;97663.66;4983557;28;20061;-64
2022/07/21 00:41:53;;;;;;;16.45;13.65;;;;;;;17.22;100.00;97663.09;4990218;28;20077;-64
2022/07/21 00:44:25;;;;;;;19.60;15.25;;;;;;;17.25;100.00;97665.22;4990675;28;20449;-63
2022/07/21 00:46:53;;;;;;;17.77;14.23;;;;;;;17.18;100.00;97670.25;4989549;28;20502;-64
2022/07/21 00:49:20;;;;;;;18.48;14.90;;;;;;;17.34;100.00;97670.06;4989895;28;20049;-64
2022/07/21 00:51:48;;;;;;;19.67;15.20;;;;;;;17.35;100.00;97668.97;4989100;28;20046;-63
2022/07/21 00:54:17;;;;;;;19.10;14.63;;;;;;;17.41;100.00;97665.91;4989456;28;20042;-64
2022/07/21 00:56:45;;;;;;;19.42;14.63;;;;;;;17.41;100.00;97667.81;4989617;28;20050;-63
2022/07/21 00:59:12;;;;;;;18.45;14.63;;;;;;;17.47;100.00;97677.59;4988343;28;20422;-64
2022/07/21 01:01:38;;;;;;;19.88;15.00;;;;;;;17.49;100.00;97680.06;4989976;28;20289;-63
2022/07/21 01:04:05;;;;;;;19.55;14.48;;;;;;;17.45;100.00;97681.75;4990241;28;20462;-64
2022/07/21 01:06:31;;;;;;;16.80;13.77;;;;;;;17.42;100.00;97678.50;4988929;28;20046;-63
2022/07/21 01:08:58;;;;;;;18.83;14.85;;;;;;;17.49;100.00;97689.09;4989534;28;20328;-63
2022/07/21 01:11:26;;;;;;;16.40;13.93;;;;;;;17.48;100.00;97686.63;4988918;28;20042;-63
2022/07/21 01:13:53;;;;;;;19.67;14.07;;;;;;;17.45;100.00;97685.31;4986578;28;20050;-64
2022/07/21 01:16:20;;;;;;;20.25;15.38;;;;;;;17.48;100.00;97683.91;4989318;28;20049;-63
2022/07/21 01:18:47;;;;;;;15.80;13.65;;;;;;;17.43;100.00;97684.75;4988853;28;20129;-63
2022/07/21 01:21:33;;;;;;;17.02;14.73;;;;;;;17.47;100.00;97685.00;4989603;28;20049;-64
2022/07/21 01:24:00;;;;;;;20.40;14.35;;;;;;;17.52;100.00;97674.00;4989648;28;20193;-64
2022/07/21 01:26:28;;;;;;;18.88;14.05;;;;;;;17.49;100.00;97674.56;4989101;28;20497;-63
2022/07/21 01:28:56;;;;;;;18.55;13.50;;;;;;;17.44;100.00;97680.13;4990031;28;20228;-64
2022/07/21 01:31:23;;;;;;;20.85;13.25;;;;;;;17.45;100.00;97676.25;4989117;28;20034;-64
2022/07/21 01:33:50;;;;;;;17.80;13.50;;;;;;;17.39;100.00;97680.97;4989843;28;20043;-63
2022/07/21 01:36:17;;;;;;;18.13;12.93;;;;;;;17.47;100.00;97680.34;4989025;28;20428;-64
2022/07/21 01:41:29;;;;;;;16.92;12.32;;;;;;;17.75;100.00;97672.38;4988736;28;20536;-64
2022/07/21 01:44:02;;;;;;;18.55;12.88;;;;;;;17.87;100.00;97676.63;4988407;28;20050;-64
2022/07/21 01:46:30;;;;;;;15.52;11.77;;;;;;;17.95;100.00;97673.25;4988250;28;20046;-64
2022/07/21 01:48:57;;;;;;;15.95;11.52;;;;;;;18.03;100.00;97677.25;4989032;28;20129;-64
2022/07/21 01:51:24;;;;;;;15.80;11.45;;;;;;;17.89;100.00;97686.19;4988377;28;20042;-64
2022/07/21 01:53:51;;;;;;;16.00;11.98;;;;;;;17.83;100.00;97689.28;4987453;28;20049;-64
2022/07/21 01:56:24;;;;;;;16.17;12.65;;;;;;;17.78;100.00;97703.84;4990103;28;20042;-63
2022/07/21 01:58:52;;;;;;;14.85;11.60;;;;;;;17.77;100.00;97704.97;4988647;28;20112;-64
2022/07/21 02:01:21;;;;;;;15.68;12.45;;;;;;;17.75;100.00;97712.63;4988838;28;20097;-64
2022/07/21 02:03:48;;;;;;;17.48;11.82;;;;;;;17.77;100.00;97711.22;4984050;28;20074;-63
2022/07/21 02:06:15;;;;;;;12.85;10.85;;;;;;;17.87;100.00;97701.28;4985884;28;20164;-64
2022/07/21 02:08:42;;;;;;;16.58;11.30;;;;;;;17.93;100.00;97698.19;4987930;28;20042;-63
2022/07/21 02:11:10;;;;;;;16.20;11.18;;;;;;;18.00;100.00;97697.84;4987669;28;20399;-63
2022/07/21 02:13:36;;;;;;;13.70;10.80;;;;;;;18.00;100.00;97697.00;4988345;28;20117;-64
2022/07/21 02:16:03;;;;;;;13.18;10.48;;;;;;;18.03;100.00;97690.94;4988023;28;20035;-63
2022/07/21 02:18:30;;;;;;;14.07;11.85;;;;;;;18.03;100.00;97682.75;4987457;28;20097;-63
2022/07/21 02:20:57;;;;;;;16.63;12.25;;;;;;;18.01;100.00;97704.13;4987126;28;20042;-63
2022/07/21 02:23:24;;;;;;;13.35;11.70;;;;;;;17.92;100.00;97699.28;4987526;28;20540;-64
2022/07/21 02:25:52;;;;;;;18.30;12.00;;;;;;;17.85;100.00;97706.22;4987803;28;20469;-64
2022/07/21 02:28:20;;;;;;;15.35;11.90;;;;;;;17.89;100.00;97712.75;4985197;28;20046;-64
2022/07/21 02:30:47;;;;;;;17.00;12.73;;;;;;;18.00;100.00;97713.44;4984674;28;20042;-64
2022/07/21 02:33:14;;;;;;;17.08;11.52;;;;;;;17.92;100.00;97717.66;4987582;28;20042;-64
2022/07/21 02:35:43;;;;;;;17.17;10.98;;;;;;;17.88;100.00;97694.69;4987914;28;20482;-63
2022/07/21 02:38:10;;;;;;;16.40;12.45;;;;;;;17.86;100.00;97695.00;4987215;28;20046;-64
2022/07/21 02:40:37;;;;;;;14.38;11.98;;;;;;;17.89;100.00;97697.16;4987722;28;20101;-63
2022/07/21 02:43:05;;;;;;;15.60;12.02;;;;;;;17.83;100.00;97714.72;4988091;28;20093;-64
2022/07/21 02:45:32;;;;;;;15.63;11.65;;;;;;;17.86;100.00;97716.06;4986966;28;20034;-64
2022/07/21 02:48:03;;;;;;;14.15;11.75;;;;;;;17.77;100.00;97703.00;4986728;28;20046;-64
2022/07/21 02:50:32;;;;;;;12.27;10.90;;;;;;;17.85;100.00;97704.31;4969630;28;20093;-64
2022/07/21 02:53:05;;;;;;;12.50;10.57;;;;;;;17.95;100.00;97706.13;4987879;28;20322;-64
2022/07/21 02:55:33;;;;;;;13.73;10.48;;;;;;;18.01;100.00;97720.56;4987858;28;20493;-64
2022/07/21 02:58:27;;;;;;;16.25;10.98;;;;;;;17.97;100.00;97708.53;4987739;28;20050;-65
2022/07/21 03:00:56;;;;;;;11.98;10.43;;;;;;;17.96;100.00;97715.97;4987584;28;20112;-63
2022/07/21 03:03:26;;;;;;;13.18;10.27;;;;;;;17.98;100.00;97721.16;4987180;28;20819;-64
2022/07/21 03:05:53;;;;;;;16.90;11.38;;;;;;;17.91;100.00;97710.56;4987493;28;20062;-64
2022/07/21 03:08:21;;;;;;;14.32;11.55;;;;;;;17.91;100.00;97732.47;4987640;28;20046;-64
2022/07/21 03:10:48;;;;;;;16.33;11.73;;;;;;;17.87;100.00;97723.19;4986758;28;20112;-64
2022/07/21 03:13:15;;;;;;;15.60;11.30;;;;;;;17.79;100.00;97720.00;4987609;28;20363;-64
2022/07/21 03:15:42;;;;;;;21.50;11.40;;;;;;;17.79;100.00;97735.59;4986722;28;20556;-64
2022/07/21 03:18:08;;;;;;;14.18;11.38;;;;;;;17.71;100.00;97725.28;4987328;28;20521;-64
2022/07/21 03:20:37;;;;;;;17.15;12.13;;;;;;;17.63;100.00;97732.22;4985967;28;20050;-64
2022/07/21 03:23:04;;;;;;;16.98;12.38;;;;;;;17.64;100.00;97733.84;4986906;28;20050;-56
2022/07/21 03:25:31;;;;;;;15.90;11.65;;;;;;;17.62;100.00;97736.84;4986320;28;20057;-55
2022/07/21 03:27:58;;;;;;;15.38;12.27;;;;;;;17.67;100.00;97734.09;4967896;28;20386;-56
2022/07/21 03:30:26;;;;;;;15.52;11.80;;;;;;;17.67;100.00;97738.75;4967940;28;20093;-56
2022/07/21 03:32:53;;;;;;;13.98;11.80;;;;;;;17.63;100.00;97737.69;4976898;28;20046;-56
2022/07/21 03:35:20;;;;;;;17.65;12.10;;;;;;;17.70;100.00;97749.13;4986744;28;20046;-56
2022/07/21 03:37:52;;;;;;;14.77;11.32;;;;;;;17.62;100.00;97750.53;4986461;28;20054;-55
2022/07/21 03:40:23;;;;;;;13.52;11.48;;;;;;;17.62;100.00;97757.97;4967333;28;20046;-55
2022/07/21 03:42:50;;;;;;;15.95;12.48;;;;;;;17.53;100.00;97761.31;4986414;28;20108;-55
2022/07/21 03:45:17;;;;;;;14.77;11.85;;;;;;;17.54;100.00;97756.66;4987199;28;20046;-55
2022/07/21 03:47:43;;;;;;;14.75;11.82;;;;;;;17.50;100.00;97761.88;4985787;28;20049;-56
2022/07/21 03:50:11;;;;;;;20.02;13.35;;;;;;;17.49;100.00;97760.25;4986987;28;20112;-55
2022/07/21 03:52:39;;;;;;;17.52;12.88;;;;;;;17.48;100.00;97757.81;4983019;28;20058;-56
2022/07/21 03:55:09;;;;;;;17.17;13.32;;;;;;;17.50;100.00;97755.59;4984542;28;20047;-55
2022/07/21 03:57:48;;;;;;;17.33;12.77;;;;;;;17.41;100.00;97756.25;4984563;28;20306;-56
2022/07/21 04:00:19;;;;;;;14.93;11.98;;;;;;;17.38;100.00;97753.25;4982667;28;20708;-54
2022/07/21 04:02:46;;;;;;;17.77;12.18;;;;;;;17.37;100.00;97757.91;4983369;28;20046;-56
2022/07/21 04:05:15;;;;;;;19.45;13.88;;;;;;;17.27;100.00;97769.75;4983950;28;20105;-53
2022/07/21 04:07:43;;;;;;;19.00;13.40;;;;;;;17.32;100.00;97765.34;4984236;28;20050;-55
2022/07/21 04:10:13;;;;;;;14.95;11.52;;;;;;;17.22;100.00;97775.28;4980112;28;20122;-56
2022/07/21 04:12:39;;;;;;;16.08;11.98;;;;;;;17.12;100.00;97772.59;4984248;28;20112;-56
2022/07/21 04:15:07;;;;;;;16.25;12.93;;;;;;;17.02;100.00;97778.94;4985106;28;20054;-55
2022/07/21 04:17:34;;;;;;;15.70;13.18;;;;;;;17.07;100.00;97778.94;4983567;28;20042;-52
2022/07/21 04:20:02;;;;;;;17.35;14.13;;;;;;;17.11;100.00;97773.72;4984021;28;20046;-54
2022/07/21 04:22:29;;;;;;;15.60;12.82;;;;;;;16.91;100.00;97772.72;4983211;28;20050;-54
2022/07/21 04:24:56;;;;;;;18.27;14.57;;;;;;;16.85;100.00;97782.06;4986175;28;20076;-52
2022/07/21 04:27:22;;;;;;;18.88;13.82;;;;;;;16.87;100.00;97785.31;4986496;28;20038;-52
2022/07/21 04:29:49;;;;;;;18.38;14.35;;;;;;;16.93;100.00;97778.75;4983213;28;20325;-50
2022/07/21 04:32:15;;;;;;;25.05;14.82;;;;;;;17.05;100.00;97783.03;4984412;28;20061;-55
2022/07/21 04:34:42;;;;;;;17.90;14.60;;;;;;;16.96;100.00;97783.66;4983943;28;20042;-55
2022/07/21 04:37:08;;;;;;;19.92;15.27;;;;;;;17.03;100.00;97788.78;4984007;28;20050;-56
2022/07/21 04:39:35;;;;;;;17.08;14.48;;;;;;;17.08;100.00;97798.91;4983252;28;20042;-56
2022/07/21 04:42:02;;;;;;;20.63;15.82;;;;;;;17.12;100.00;97797.22;4977097;28;20569;-56
2022/07/21 04:44:29;;;;;;;17.15;14.25;;;;;;;17.25;100.00;97795.78;4977907;28;20526;-57
2022/07/21 04:46:55;;;;;;;18.38;14.93;;;;;;;17.18;100.00;97792.53;4981559;28;20490;-56
2022/07/21 04:49:22;;;;;;;18.60;15.18;;;;;;;17.29;100.00;97794.91;4982820;28;20221;-69
2022/07/21 04:51:49;;;;;;;21.13;15.38;;;;;;;17.31;100.00;97777.41;4983516;28;20050;-69
2022/07/21 04:54:16;;;;;;;22.95;15.55;;;;;;;17.33;100.00;97786.97;4983353;28;20052;-69
2022/07/21 04:56:43;;;;;;;19.38;15.52;;;;;;;17.36;100.00;97796.53;4983474;28;20577;-69
2022/07/21 04:59:10;;;;;;;19.55;15.93;;;;;;;17.51;100.00;97790.09;4984311;28;20469;-68
2022/07/21 05:01:38;;;;;;;24.40;17.80;;;;;;;17.58;100.00;97796.03;4983933;28;20121;-70
2022/07/21 05:04:05;;;;;;;20.73;16.38;;;;;;;17.48;100.00;97790.66;4992993;28;20070;-69
2022/07/21 05:06:33;;;;;;;20.20;14.60;;;;;;;17.44;100.00;97793.16;4989728;28;20494;-70
2022/07/21 05:08:59;;;;;;;19.17;16.35;;;;;;;17.47;100.00;97795.31;4992872;28;20050;-70
2022/07/21 05:11:26;;;;;;;19.98;15.68;;;;;;;17.44;100.00;97795.91;4987024;28;20053;-69
2022/07/21 05:13:53;;;;;;;22.35;16.48;;;;;;;17.48;100.00;97794.22;4986796;28;20046;-68
2022/07/21 05:16:21;;;;;;;18.75;15.70;;;;;;;17.51;100.00;97801.03;4986787;28;20117;-70
2022/07/21 05:18:47;;;;;;;19.85;16.13;;;;;;;17.55;100.00;97793.91;4987195;28;20577;-69
2022/07/21 05:21:14;;;;;;;22.30;16.83;;;;;;;17.53;100.00;97799.66;4987129;28;20053;-69
2022/07/21 05:23:40;;;;;;;17.90;14.68;;;;;;;17.63;100.00;97797.91;4987073;28;20516;-69
2022/07/21 05:26:07;;;;;;;19.52;13.48;;;;;;;17.78;100.00;97796.97;4986636;28;20508;-68
2022/07/21 05:28:33;;;;;;;17.02;13.27;;;;;;;17.99;100.00;97802.22;4987428;28;20042;-70
2022/07/21 05:31:00;;;;;;;17.17;12.00;;;;;;;18.17;100.00;97806.19;4986298;28;20042;-57
2022/07/21 05:33:27;;;;;;;18.10;12.50;;;;;;;18.30;100.00;97802.75;4987222;28;20046;-56
2022/07/21 05:35:53;;;;;;;17.20;12.40;;;;;;;18.42;100.00;97805.06;4987107;28;20367;-59
2022/07/21 05:38:20;;;;;;;16.15;10.80;;;;;;;18.54;99.69;97799.13;4986165;28;20038;-57
2022/07/21 05:40:53;;;;;;;11.52;10.32;;;;;;;18.71;98.34;97806.06;4985761;28;20052;-58
2022/07/21 05:43:19;;;;;;;13.07;10.20;;;;;;;18.90;96.60;97813.50;4987026;28;20058;-58
2022/07/21 05:45:46;;;;;;;13.70;9.10;;;;;;;19.17;93.55;97817.53;4986452;28;20042;-58
2022/07/21 05:48:14;;;;;;;11.30;8.95;;;;;;;19.48;92.11;97817.03;4986877;28;20084;-58
2022/07/21 05:50:41;;;;;;;10.68;8.52;;;;;;;19.78;89.65;97823.13;4986448;28;20348;-58
2022/07/21 05:53:07;;;;;;;11.90;8.30;;;;;;;19.98;87.70;97827.47;4987306;28;20056;-59
2022/07/21 05:55:34;;;;;;;10.52;8.73;;;;;;;20.04;85.96;97819.94;4985925;28;20042;-58
2022/07/21 05:58:01;;;;;;;11.23;8.15;;;;;;;20.21;86.11;97829.53;4987062;28;20054;-58
2022/07/21 06:00:34;;;;;;;9.73;7.30;;;;;;;20.07;84.51;97835.84;4986368;28;20050;-59
2022/07/21 06:03:00;;;;;;;7.93;6.55;;;;;;;19.97;83.91;97841.50;4986413;28;20354;-59
2022/07/21 06:05:27;;;;;;;8.63;6.70;;;;;;;19.79;84.05;97845.94;4986480;28;20056;-59
2022/07/21 06:07:53;;;;;;;8.93;6.57;;;;;;;19.82;84.66;97845.31;4985772;28;20280;-58
2022/07/21 06:10:20;;;;;;;9.60;6.43;;;;;;;19.92;84.19;97836.91;4986443;28;20050;-58
2022/07/21 06:12:49;;;;;;;8.77;6.75;;;;;;;20.04;82.53;97841.94;4987092;28;20505;-59
2022/07/21 06:15:16;;;;;;;8.93;6.18;;;;;;;20.00;83.08;97841.72;4986242;28;20046;-58
2022/07/21 06:17:45;;;;;;;8.23;6.88;;;;;;;20.07;81.84;97844.06;4986867;28;20038;-58
2022/07/21 06:20:13;;;;;;;8.38;7.07;;;;;;;20.01;81.21;97837.03;4985391;28;20053;-58
2022/07/21 06:22:40;;;;;;;10.02;6.35;;;;;;;20.02;79.95;97846.94;4985119;28;20456;-58
2022/07/21 06:25:07;;;;;;;9.35;6.85;;;;;;;20.09;81.04;97849.28;4986189;28;20050;-58
2022/07/21 06:27:33;;;;;;;8.52;6.47;;;;;;;20.20;81.36;97842.44;4981791;28;20457;-60
2022/07/21 06:30:00;;;;;;;9.45;7.57;;;;;;;20.01;80.12;97843.34;4988416;28;20062;-60
2022/07/21 06:32:27;;;;;;;10.35;6.50;;;;;;;19.96;81.69;97843.41;4984071;28;20069;-61
2022/07/21 06:34:53;;;;;;;8.75;6.07;;;;;;;20.04;80.81;97836.44;4985368;28;20430;-60
2022/07/21 06:37:21;;;;;;;8.77;6.32;;;;;;;20.36;80.33;97844.91;4984395;28;20042;-60
2022/07/21 06:39:47;;;;;;;7.95;6.18;;;;;;;20.59;77.91;97845.00;4984971;28;20046;-59
2022/07/21 06:42:14;;;;;;;11.40;6.75;;;;;;;20.77;78.08;97846.84;4985396;28;20050;-60
2022/07/21 06:44:41;;;;;;;9.73;5.90;;;;;;;21.27;75.72;97839.69;4983427;28;20056;-60
2022/07/21 06:47:07;;;;;;;7.95;5.80;;;;;;;21.61;73.33;97834.78;4985485;28;20049;-61
2022/07/21 06:49:34;;;;;;;8.68;6.18;;;;;;;21.69;72.35;97842.28;4985497;28;20465;-62
2022/07/21 06:52:00;;;;;;;9.50;5.82;;;;;;;21.21;72.35;97848.38;4984479;28;20046;-58
2022/07/21 06:54:27;;;;;;;8.68;5.25;;;;;;;21.01;72.48;97839.50;4985438;28;20064;-59
2022/07/21 06:56:53;;;;;;;8.07;5.43;;;;;;;21.47;71.37;97843.09;4985314;28;20532;-60
2022/07/21 06:59:20;;;;;;;8.45;6.18;;;;;;;21.04;72.55;97845.19;4984673;28;20046;-71
2022/07/21 07:01:46;;;;;;;9.35;6.10;;;;;;;20.81;74.02;97855.28;4983335;28;20054;-71
2022/07/21 07:04:13;;;;;;;8.85;5.80;;;;;;;20.90;74.07;97858.97;4985085;28;20500;-70
2022/07/21 07:06:40;;;;;;;9.93;6.03;;;;;;;20.35;75.91;97852.34;4983159;28;20132;-70
2022/07/21 07:09:06;;;;;;;8.52;6.30;;;;;;;20.67;75.15;97861.63;4984547;28;20069;-70
2022/07/21 07:11:34;;;;;;;8.38;6.25;;;;;;;20.73;73.27;97865.09;4991317;28;20060;-68
2022/07/21 07:14:01;;;;;;;8.85;6.55;;;;;;;20.58;75.30;97860.72;5004145;28;20061;-67
2022/07/21 07:16:42;;;;;;;8.68;5.82;;;;;;;20.58;74.55;97868.13;4995679;28;20077;-66
2022/07/21 07:19:09;;;;;;;8.90;6.80;;;;;;;20.83;73.17;97871.50;4986988;28;20077;-68
2022/07/21 07:21:36;;;;;;;8.85;5.90;;;;;;;21.10;74.18;97867.91;4983275;28;20038;-71
2022/07/21 07:24:03;;;;;;;8.68;5.90;;;;;;;21.24;74.69;97858.78;4984711;28;20046;-67
2022/07/21 07:26:29;;;;;;;10.93;7.10;;;;;;;21.36;75.11;97861.81;4983417;28;20046;-66
2022/07/21 07:28:56;;;;;;;8.52;6.03;;;;;;;21.47;71.91;97859.63;4984526;28;20050;-66
2022/07/21 07:31:23;;;;;;;11.52;6.35;;;;;;;21.36;72.49;97861.81;4983666;28;20046;-73
2022/07/21 07:33:50;;;;;;;9.35;6.13;;;;;;;21.25;72.53;97863.16;4984594;28;20185;-73
2022/07/21 07:36:17;;;;;;;8.10;6.15;;;;;;;21.07;73.45;97871.28;4984114;28;20249;-65
2022/07/21 07:38:43;;;;;;;8.52;6.05;;;;;;;21.20;71.82;97868.78;4983117;28;20050;-72
2022/07/21 07:41:10;;;;;;;8.48;6.05;;;;;;;21.30;71.05;97868.56;4983355;28;20349;-67
2022/07/21 07:43:37;;;;;;;8.90;5.82;;;;;;;21.51;71.02;97871.66;4983203;28;20052;-67
2022/07/21 07:46:04;;;;;;;7.72;6.00;;;;;;;21.57;69.17;97864.09;4976952;28;20042;-68
2022/07/21 07:48:31;;;;;;;10.00;6.15;;;;;;;21.80;68.74;97864.91;4984065;28;20093;-65
2022/07/21 07:50:58;;;;;;;8.05;5.57;;;;;;;22.10;67.29;97875.47;4983798;28;20057;-65
2022/07/21 07:53:24;;;;;;;8.35;5.88;;;;;;;22.12;66.30;97872.41;4984074;28;20528;-67
2022/07/21 07:55:51;;;;;;;7.43;4.97;;;;;;;22.25;65.52;97874.25;4984175;28;20054;-66
2022/07/21 07:58:18;;;;;;;7.68;5.03;;;;;;;22.24;65.08;97867.09;4990939;28;20046;-68
2022/07/21 08:00:45;;;;;;;7.13;4.70;;;;;;;22.18;62.92;97874.69;4993043;28;20034;-65
2022/07/21 08:03:22;;;;;;;6.82;5.03;;;;;;;22.25;63.04;97867.94;4982726;28;20572;-66
2022/07/21 08:05:49;;;;;;;7.07;4.18;;;;;;;22.43;63.38;97866.88;4992695;28;20057;-66
2022/07/21 08:08:16;;;;;;;6.57;4.80;;;;;;;22.60;62.16;97876.38;4987113;28;20046;-67
2022/07/21 08:10:45;;;;;;;9.02;5.25;;;;;;;22.25;64.14;97867.94;4987286;28;20108;-66
2022/07/21 08:13:14;;;;;;;8.10;4.90;;;;;;;22.38;62.65;97877.22;4983379;28;20597;-71
2022/07/21 08:15:43;;;;;;;6.60;4.70;;;;;;;22.32;63.44;97868.25;4983922;28;20241;-72
2022/07/21 08:18:09;;;;;;;8.90;4.78;;;;;;;21.98;63.99;97861.44;4976618;28;20053;-64
2022/07/21 08:20:37;;;;;;;9.18;5.53;;;;;;;21.68;64.02;97862.69;4983419;28;20049;-64
2022/07/21 08:23:04;;;;;;;7.55;5.82;;;;;;;21.62;66.51;97871.38;4984035;28;20277;-66
2022/07/21 08:25:31;;;;;;;7.88;5.32;;;;;;;21.98;66.71;97864.19;4983134;28;20151;-66
2022/07/21 08:27:58;;;;;;;7.90;5.05;;;;;;;22.25;64.37;97860.44;4983403;28;20038;-67
2022/07/21 08:30:25;;;;;;;8.15;5.43;;;;;;;22.22;64.54;97863.84;4981607;28;20042;-72
2022/07/21 08:32:59;;;;;;;6.68;5.07;;;;;;;22.62;62.33;97853.97;4982815;28;20042;-74
2022/07/21 08:35:27;;;;;;;5.18;4.13;;;;;;;22.93;60.57;97853.91;4982152;28;20046;-71
2022/07/21 08:38:14;;;;;;;6.18;4.03;;;;;;;23.19;58.40;97850.34;4983334;28;20046;-70
2022/07/21 08:40:44;;;;;;;8.10;4.43;;;;;;;23.44;59.40;97852.66;4978516;28;20517;-71
2022/07/21 08:43:13;;;;;;;7.13;4.68;;;;;;;23.86;58.54;97846.56;4987342;28;20431;-72
2022/07/21 08:45:41;;;;;;;6.35;4.15;;;;;;;24.23;56.83;97849.75;4983457;28;20042;-71
2022/07/21 08:48:08;;;;;;;6.05;4.53;;;;;;;24.07;55.83;97855.00;4988720;28;20053;-73
2022/07/21 08:50:37;;;;;;;6.50;4.20;;;;;;;24.15;56.98;97845.06;4988116;28;20116;-70
2022/07/21 08:53:05;;;;;;;6.35;4.38;;;;;;;24.32;55.87;97843.38;4988537;28;20042;-68
2022/07/21 08:55:33;;;;;;;6.75;4.95;;;;;;;24.35;55.85;97840.75;4991656;28;20048;-69
2022/07/21 08:58:00;;;;;;;6.68;4.22;;;;;;;23.50;57.01;97851.34;4987796;28;20050;-65
2022/07/21 09:00:34;;;;;;;4.93;3.67;;;;;;;23.59;56.14;97854.91;4986754;28;20069;-65
2022/07/21 09:03:12;;;;;;;7.70;4.20;;;;;;;23.62;55.65;97851.47;4987979;28;20758;-67
2022/07/21 09:05:39;;;;;;;5.93;4.18;;;;;;;23.66;55.26;97846.09;4989382;28;20053;-66
2022/07/21 09:08:06;;;;;;;5.40;3.15;;;;;;;23.97;54.90;97844.25;4987983;28;20046;-65
2022/07/21 09:10:34;;;;;;;5.88;3.63;;;;;;;23.89;53.43;97851.44;4987369;28;20046;-66
2022/07/21 09:13:05;;;;;;;4.15;3.00;;;;;;;23.87;52.02;97854.53;4986860;28;20077;-71
2022/07/21 09:15:33;;;;;;;5.57;3.65;;;;;;;23.27;54.22;97851.47;4986075;28;20617;-67
2022/07/21 09:18:09;;;;;;;5.47;3.45;;;;;;;23.69;52.18;97844.66;4986756;28;20042;-66
2022/07/21 09:20:45;;;;;;;5.50;3.17;;;;;;;23.80;52.60;97856.97;4985670;28;20065;-67
2022/07/21 09:23:15;;;;;;;6.97;3.72;;;;;;;23.90;51.85;97856.66;4986828;28;20049;-71
2022/07/21 09:25:57;;;;;;;4.95;3.05;;;;;;;24.16;52.71;97860.50;4985389;28;20054;-67
2022/07/21 09:28:27;;;;;;;5.45;3.00;;;;;;;23.68;52.62;97860.44;4986837;28;20557;-66
2022/07/21 09:30:58;;;;;;;5.40;3.20;;;;;;;23.68;52.61;97859.59;4985435;28;20042;-67
2022/07/21 09:33:36;;;;;;;7.57;3.35;;;;;;;23.90;53.08;97858.59;4985605;28;20294;-67
2022/07/21 09:36:17;;;;;;;6.32;3.17;;;;;;;23.60;54.75;97864.84;4989681;28;20045;-66
2022/07/21 09:38:50;;;;;;;5.57;3.33;;;;;;;23.36;53.78;97859.78;4996362;28;20509;-71
2022/07/21 09:41:20;;;;;;;5.10;3.60;;;;;;;23.85;54.56;97858.78;4986854;28;20429;-65
2022/07/21 09:43:55;;;;;;;5.35;3.75;;;;;;;24.28;54.28;97854.28;4985373;28;20042;-70
2022/07/21 09:46:30;;;;;;;9.10;3.97;;;;;;;24.48;52.51;97854.69;4981852;28;20398;-69
2022/07/21 09:49:04;;;;;;;6.25;3.75;;;;;;;24.73;50.91;97858.47;4981299;28;20042;-69
2022/07/21 09:51:50;;;;;;;6.43;3.92;;;;;;;24.72;51.35;97840.22;4984963;28;20050;-69
2022/07/21 09:54:17;;;;;;;8.40;3.60;;;;;;;24.83;51.18;97842.63;4985992;28;20104;-69
2022/07/21 09:56:45;;;;;;;6.38;3.75;;;;;;;24.86;49.69;97842.78;4985609;28;20038;-69
2022/07/21 09:59:12;;;;;;;4.75;3.40;;;;;;;24.86;48.94;97844.75;4985210;28;20042;-69
2022/07/21 10:01:40;;;;;;;5.60;3.28;;;;;;;24.98;49.60;97844.03;4985887;28;20211;-69
2022/07/21 10:04:07;;;;;;;4.57;3.38;;;;;;;24.97;49.49;97834.06;4985690;28;20046;-69
2022/07/21 10:06:38;;;;;;;4.70;2.88;;;;;;;24.98;49.75;97838.50;4984982;28;20631;-69
2022/07/21 10:09:07;;;;;;;5.95;3.00;;;;;;;25.03;48.00;97835.50;4986232;28;20050;-69
2022/07/21 10:11:39;;;;;;;5.20;3.00;;;;;;;25.17;47.88;97832.50;4985224;28;20414;-69
2022/07/21 10:14:09;;;;;;;4.38;2.90;;;;;;;24.79;48.25;97832.22;4985718;28;20057;-68
2022/07/21 10:16:36;;;;;;;4.55;3.08;;;;;;;24.72;44.89;97834.69;4980656;28;20057;-68
2022/07/21 10:19:02;;;;;;;5.75;3.33;;;;;;;24.67;45.50;97821.88;4985349;28;20049;-72
2022/07/21 10:21:39;;;;;;;4.97;2.95;;;;;;;25.06;45.30;97827.34;4986017;28;20268;-70
2022/07/21 10:24:10;;;;;;;5.68;3.20;;;;;;;24.77;46.29;97820.66;4984512;28;20413;-67
2022/07/21 10:26:59;;;;;;;5.32;3.20;;;;;;;24.48;48.02;97824.25;4985585;28;20050;-69
2022/07/21 10:29:47;;;;;;;7.43;3.60;;;;;;;24.40;48.16;97831.47;4986085;28;20042;-69
2022/07/21 10:32:16;;;;;;;5.28;3.17;;;;;;;24.47;48.53;97828.16;4974259;28;20053;-69
2022/07/21 10:34:43;;;;;;;4.97;3.25;;;;;;;24.73;47.73;97819.69;4983608;28;20052;-68
2022/07/21 10:37:10;;;;;;;4.82;3.22;;;;;;;24.88;46.46;97823.88;4983719;28;20046;-70
2022/07/21 10:39:38;;;;;;;6.55;3.42;;;;;;;24.84;47.56;97822.09;4985106;28;20042;-69
2022/07/21 10:42:16;;;;;;;5.13;3.78;;;;;;;24.98;47.04;97821.88;4982716;28;20121;-69
2022/07/21 10:44:47;;;;;;;6.53;3.65;;;;;;;25.70;46.95;97820.94;4985148;28;20080;-70
2022/07/21 10:47:20;;;;;;;5.45;3.60;;;;;;;25.41;46.02;97825.44;4981762;28;20527;-67
2022/07/21 10:49:54;;;;;;;7.80;4.30;;;;;;;25.15;46.31;97818.97;4984408;28;20054;-73
2022/07/21 10:52:39;;;;;;;5.70;3.50;;;;;;;24.92;47.26;97822.03;4984631;28;20053;-64
2022/07/21 10:55:17;;;;;;;5.32;3.70;;;;;;;24.93;48.33;97822.88;4995383;28;20054;-65
2022/07/21 10:57:46;;;;;;;4.78;3.20;;;;;;;24.74;48.28;97821.34;4991634;28;20525;-62
2022/07/21 11:00:16;;;;;;;5.47;3.33;;;;;;;24.46;49.57;97818.25;4985284;28;20046;-71
2022/07/21 11:02:44;;;;;;;6.50;4.00;;;;;;;24.78;50.05;97819.53;4984667;28;20048;-71
2022/07/21 11:05:10;;;;;;;6.35;4.35;;;;;;;25.20;49.09;97810.44;4984264;28;20042;-69
2022/07/21 11:08:10;;;;;;;6.18;4.13;;;;;;;25.46;47.37;97811.34;4984643;28;20039;-70
2022/07/21 11:10:38;;;;;;;6.97;4.68;;;;;;;25.57;47.78;97814.53;4978947;28;20060;-70
2022/07/21 11:13:05;;;;;;;6.10;4.53;;;;;;;25.81;47.59;97811.06;4988327;28;20317;-72
2022/07/21 11:15:59;;;;;;;6.78;4.60;;;;;;;25.90;46.45;97810.16;4983960;28;20046;-73
2022/07/21 11:18:31;;;;;;;7.57;4.30;;;;;;;25.78;46.60;97810.91;4984740;28;20046;-71
2022/07/21 11:21:03;;;;;;;6.10;3.83;;;;;;;25.83;46.85;97817.06;4981577;28;20286;-72
2022/07/21 11:23:59;;;;;;;8.25;4.50;;;;;;;26.09;47.04;97818.72;4964979;28;20053;-72
2022/07/21 11:26:26;;;;;;;6.38;4.88;;;;;;;26.22;44.89;97810.41;4977409;28;20054;-67
2022/07/21 11:29:06;;;;;;;5.40;4.13;;;;;;;25.82;45.09;97809.91;4982626;28;20042;-69
2022/07/21 11:31:45;;;;;;;7.47;4.30;;;;;;;25.83;45.69;97803.19;4981109;28;20049;-68